Home > Products > Valid Products > TAF

000
FTUS43 KPAH 230500
TAFCGI
TAF
KCGI 230535Z 2306/2406 17008KT P6SM SCT080
     FM231100 15010KT P6SM -SHRA OVC015
     FM231600 14012KT 3SM RA BR OVC005
      TEMPO 2318/2320 2SM SHRA BR OVC003
     FM240000 19015KT P6SM OVC010=



000
FTUS43 KPAH 230500
TAFPAH
TAF
KPAH 230535Z 2306/2406 17006KT P6SM FEW035 SCT080
     FM231200 13008KT P6SM -SHRA OVC015
     FM231700 15012KT 3SM RA BR OVC005
      TEMPO 2318/2320 2SM SHRA BR OVC003
     FM240000 19013KT P6SM OVC010=



000
FTUS43 KPAH 230500
TAFEVV
TAF
KEVV 230535Z 2306/2406 17006KT P6SM FEW035 SCT080
     FM231300 12008KT P6SM -SHRA OVC015
     FM231800 15009KT 3SM RA BR OVC005
      TEMPO 2319/2321 2SM SHRA BR OVC003
     FM240200 19012KT P6SM OVC010=



000
FTUS43 KPAH 222300
TAFEVV
TAF
KEVV 222338Z 2300/2324 17007KT P6SM BKN080
     FM231300 12008KT P6SM -SHRA SCT010 OVC025
     FM231800 15012KT 3SM -SHRA BR SCT005 OVC010=



000
FTUS43 KPAH 222300
TAFCGI
TAF
KCGI 222338Z 2300/2324 17007KT P6SM BKN080
     FM231100 13009KT P6SM -SHRA SCT010 BKN025
     FM231600 15012KT 3SM -SHRA BR SCT005 OVC010=



000
FTUS43 KPAH 222300
TAFPAH
TAF
KPAH 222338Z 2300/2324 18006KT P6SM BKN070
     FM231200 11008KT P6SM -SHRA SCT010 OVC025
     FM231700 15012KT 3SM -SHRA BR SCT005 OVC010=



000
FTUS43 KPAH 221700
TAFEVV
TAF
KEVV 221730Z 2218/2318 20012G23KT P6SM SCT050 BKN080
     FM230000 17007KT P6SM BKN080
     FM231200 16010KT P6SM SCT010 OVC020
     FM231600 15012KT 4SM -SHRA BR SCT005 OVC012=



000
FTUS43 KPAH 221700
TAFCGI
TAF
KCGI 221730Z 2218/2318 19012G21KT P6SM VCSH SCT030 OVC050
     FM230000 17007KT P6SM BKN080
     FM230800 16010KT 5SM BR VCSH SCT010 BKN025
     FM231400 15012KT 3SM -SHRA BR SCT005 OVC010=



000
FTUS43 KPAH 221700
TAFPAH
TAF
KPAH 221730Z 2218/2318 19012G20KT P6SM OVC050
     FM230000 17007KT P6SM BKN070
     FM231000 16010KT P6SM VCSH SCT010 OVC030
     FM231500 15012KT 4SM -SHRA BR SCT005 OVC010=



000
FTUS43 KPAH 221500 AAA
TAFPAH
TAF AMD
KPAH 221534Z 2216/2312 19012G18KT P6SM OVC050
      TEMPO 2216/2218 -SHRA BKN070
     FM230000 17006KT P6SM BKN070=



000
FTUS43 KPAH 221500 AAA
TAFCGI
TAF AMD
KCGI 221534Z 2216/2312 17013G21KT P6SM VCSH SCT030 OVC050
     FM230000 17007KT P6SM BKN070=



000
FTUS43 KPAH 221100
TAFPAH
TAF
KPAH 221120Z 2212/2312 18007KT P6SM OVC070
     FM221500 19012G18KT P6SM SCT030 BKN050
     FM230000 17006KT P6SM BKN070=



000
FTUS43 KPAH 221100
TAFEVV
TAF
KEVV 221120Z 2212/2312 17006KT P6SM OVC045
     FM221500 18011G18KT P6SM SCT030 BKN060
     FM230000 17006KT P6SM BKN080=



000
FTUS43 KPAH 221100
TAFCGI
TAF
KCGI 221120Z 2212/2312 18007KT P6SM OVC070
     FM221500 19013G21KT P6SM SCT030 BKN050
     FM230000 17007KT P6SM BKN070=



000
FTUS43 KPAH 220500
TAFEVV
TAF
KEVV 220539Z 2206/2306 14005KT P6SM -SHRA OVC045
     FM220900 17006KT P6SM OVC045
     FM221500 18011G18KT P6SM SCT030 BKN060
     FM230000 17006KT P6SM BKN080=



000
FTUS43 KPAH 220500
TAFCGI
TAF
KCGI 220539Z 2206/2306 16004KT P6SM -SHRA OVC060
     FM220700 18007KT P6SM OVC070
     FM221500 19013G21KT P6SM SCT030 BKN050
     FM230000 17007KT P6SM BKN070=



000
FTUS43 KPAH 220500
TAFPAH
TAF
KPAH 220539Z 2206/2306 15005KT P6SM -SHRA OVC060
     FM220800 18007KT P6SM OVC070
     FM221500 19012G18KT P6SM SCT030 BKN050
     FM230000 17006KT P6SM BKN070=



000
FTUS43 KPAH 220400 AAA
TAFCGI
TAF AMD
KCGI 220451Z 2205/2224 14004KT P6SM SCT025 OVC060
     FM220700 18009KT P6SM FEW025 OVC050
     FM221500 19012G21KT P6SM SCT030 BKN050=



000
FTUS43 KPAH 220200 AAA
TAFPAH
TAF AMD
KPAH 220229Z 2202/2224 13005KT P6SM -SHRA FEW025 OVC050
     FM220700 18008KT P6SM OVC035
     FM221500 19011G18KT P6SM SCT030 BKN050=



000
FTUS43 KPAH 212300
TAFPAH
TAF
KPAH 212329Z 2200/2224 13006KT P6SM -SHRA OVC025
     FM220700 18008KT P6SM SCT025 OVC035
     FM221500 19011G18KT P6SM SCT030 BKN050=



000
FTUS43 KPAH 212300
TAFEVV
TAF
KEVV 212329Z 2200/2224 11006KT P6SM BKN045
     FM220300 14005KT P6SM -SHRA OVC035
     FM220900 17007KT P6SM SCT025 OVC035
     FM221500 18011G18KT P6SM SCT030 BKN050=



000
FTUS43 KPAH 212300
TAFCGI
TAF
KCGI 212329Z 2200/2224 14007KT P6SM -SHRA SCT010 OVC025
     FM220700 18009KT P6SM SCT025 OVC035
     FM221500 19012G21KT P6SM SCT030 BKN050=



000
FTUS43 KPAH 212100 AAA
TAFCGI
TAF AMD
KCGI 212120Z 2121/2218 11010KT P6SM VCSH SCT025 OVC035
      TEMPO 2121/2124 BKN025
     FM220000 13007KT P6SM -SHRA SCT010 OVC025
     FM220600 17009KT P6SM VCSH SCT025 OVC035
     FM221500 18012G20KT P6SM SCT030 BKN050=



000
FTUS43 KPAH 211700
TAFEVV
TAF
KEVV 211720Z 2118/2218 12007KT P6SM SCT050 BKN150
     FM212300 12008KT P6SM SCT025 BKN050
     FM220300 15006KT P6SM -SHRA SCT010 OVC025
     FM220900 17007KT P6SM VCSH SCT025 OVC035
     FM221500 18011G16KT P6SM SCT030 BKN050=



000
FTUS43 KPAH 211700
TAFCGI
TAF
KCGI 211720Z 2118/2218 11010KT P6SM VCSH SCT020 OVC035
     FM220000 13007KT P6SM -SHRA SCT010 OVC025
     FM220600 17009KT P6SM VCSH SCT025 OVC035
     FM221500 18012G20KT P6SM SCT030 BKN050=



000
FTUS43 KPAH 211700
TAFPAH
TAF
KPAH 211720Z 2118/2218 11011KT P6SM VCSH SCT020 OVC035
     FM220100 13006KT P6SM -SHRA SCT010 OVC025
     FM220700 17008KT P6SM VCSH SCT025 OVC035
     FM221500 18010G15KT P6SM SCT030 BKN050=



000
FTUS43 KPAH 211100
TAFPAH
TAF
KPAH 211120Z 2112/2212 08008KT P6SM BKN050
     FM211800 12008KT P6SM OVC040
     FM220000 12005KT P6SM VCSH OVC035
     FM220600 17007KT P6SM VCSH SCT025 OVC035=



000
FTUS43 KPAH 211100
TAFEVV
TAF
KEVV 211120Z 2112/2212 VRB03KT P6SM SKC
     FM211500 08005KT P6SM SCT050
     FM212100 11008KT P6SM BKN050=



000
FTUS43 KPAH 211100
TAFCGI
TAF
KCGI 211120Z 2112/2212 09008KT P6SM BKN050
     FM211800 12010KT P6SM OVC040
     FM220100 13006KT P6SM VCSH OVC035
     FM220600 17009KT P6SM VCSH SCT025 OVC035=



000
FTUS43 KPAH 210500
TAFEVV
TAF
KEVV 210531Z 2106/2206 VRB03KT P6SM SKC
     FM211500 08005KT P6SM SKC
     FM212100 11008KT P6SM BKN050=



000
FTUS43 KPAH 210500
TAFPAH
TAF
KPAH 210531Z 2106/2206 07002KT P6SM BKN050
     FM211800 12008KT P6SM OVC040
     FM220000 12005KT P6SM VCSH OVC030=



000
FTUS43 KPAH 210500
TAFCGI
TAF
KCGI 210531Z 2106/2206 07002KT P6SM BKN050
     FM211800 12010KT P6SM OVC040
     FM220100 13006KT P6SM VCSH OVC030=



000
FTUS43 KPAH 202300
TAFEVV
TAF
KEVV 202320Z 2100/2124 VRB02KT P6SM SKC
     FM211500 09005KT P6SM SKC
     FM212100 13006KT P6SM SCT050=



000
FTUS43 KPAH 202300
TAFCGI
TAF
KCGI 202320Z 2100/2124 VRB03KT P6SM SKC
     FM210500 07002KT P6SM BKN050
     FM211800 12008KT P6SM OVC040=



000
FTUS43 KPAH 202300
TAFPAH
TAF
KPAH 202320Z 2100/2124 VRB03KT P6SM SKC
     FM210500 07002KT P6SM BKN050
     FM211800 12007KT P6SM OVC040=



000
FTUS43 KPAH 201700
TAFEVV
TAF
KEVV 201720Z 2018/2118 26011G17KT P6SM SCT035
      TEMPO 2018/2021 BKN035
     FM210000 00000KT P6SM SCT250
     FM211500 09005KT P6SM SCT150 BKN250=



000
FTUS43 KPAH 201700
TAFPAH
TAF
KPAH 201720Z 2018/2118 28006KT P6SM SKC
     FM210100 VRB02KT P6SM SCT250
     FM211500 09007KT P6SM SCT050 BKN150=



000
FTUS43 KPAH 201700
TAFCGI
TAF
KCGI 201720Z 2018/2118 29006KT P6SM SKC
     FM210100 VRB02KT P6SM SCT250
     FM211500 09007KT P6SM SCT050 BKN150=



    US Dept of Commerce
    National Oceanic and Atmospheric Administration
    National Weather Service
    1325 East West Highway
    Silver Spring, MD 20910
    Page Author: NWS Internet Services Team
Disclaimer
Information Quality
Credits
Glossary
Privacy Policy
Freedom of Information Act (FOIA)
About Us
Career Opportunities